Terminal Aerodrome Forecast
Issued by NWS

Home | Current Version | Previous Version | Text Only | Print | Product List | Glossary On
Versions: 1 2 3 4 5 6 7 8 9 10 11 12 13 14
000
FTUS44 KCRP 251120
TAFLRD
TAF
KLRD 251120Z 2512/2612 06007KT P6SM BKN015 OVC150
     FM251600 09008KT P6SM SCT025 BKN035
     FM251800 09012KT P6SM VCTS BKN040CB BKN150
      TEMPO 2518/2522 4SM TSRA OVC030CB
     FM252200 10012KT P6SM VCTS BKN050CB BKN150 PROB30 2522/2602 5SM
      -TSRA BKN035CB
     FM260200 10010KT P6SM SCT050 BKN150
     FM260800 11008KT P6SM BKN020=

USA.gov is the U.S. government's official web portal to all federal, state and local government web resources and services.